createdAt,value
2018-11-10T00:02:01.266Z,55.8
2018-11-10T00:06:57.073Z,55.6
2018-11-10T00:11:52.492Z,56
2018-11-10T00:16:48.139Z,55.4
2018-11-10T00:21:44.208Z,55.5
2018-11-10T00:26:39.626Z,56
2018-11-10T00:31:35.215Z,56.1
2018-11-10T00:36:30.996Z,56.3
2018-11-10T00:41:26.840Z,56.2
2018-11-10T00:46:22.460Z,56.4
2018-11-10T00:51:18.293Z,56.2
2018-11-10T00:56:14.067Z,56.3
2018-11-10T01:01:10.090Z,56.2
2018-11-10T01:06:05.746Z,55.9
2018-11-10T01:11:01.377Z,56.3
2018-11-10T01:15:56.996Z,56.6
2018-11-10T01:20:52.897Z,57.1
2018-11-10T01:25:48.549Z,57
2018-11-10T01:30:43.442Z,57
2018-11-10T01:35:39.180Z,57.5
2018-11-10T01:40:35.031Z,57.1
2018-11-10T01:45:30.527Z,57
2018-11-10T01:50:25.835Z,57.1
2018-11-10T01:55:21.498Z,56.8
2018-11-10T02:00:17.042Z,56.9
2018-11-10T02:05:12.822Z,57.2
2018-11-10T02:10:08.161Z,57.7
2018-11-10T02:15:03.875Z,57.8
2018-11-10T02:19:59.141Z,57.9
2018-11-10T02:24:54.739Z,57.5
2018-11-10T02:29:50.541Z,58
2018-11-10T02:34:46.143Z,57.7
2018-11-10T02:39:41.601Z,57.8
2018-11-10T02:44:36.952Z,57.6
2018-11-10T02:49:32.558Z,57.8
2018-11-10T02:54:28.348Z,57.9
2018-11-10T02:59:24.015Z,57.8
2018-11-10T03:04:19.648Z,57.7
2018-11-10T03:09:15.747Z,58
2018-11-10T03:14:11.444Z,57.5
2018-11-10T03:19:07.063Z,57.3
2018-11-10T03:24:02.928Z,57.3
2018-11-10T03:28:58.356Z,57
2018-11-10T03:33:53.979Z,56.9
2018-11-10T03:38:49.350Z,57.1
2018-11-10T03:43:45.035Z,57.2
2018-11-10T03:48:40.820Z,57.6
2018-11-10T03:53:36.454Z,57.7
2018-11-10T03:58:32.328Z,57.8
2018-11-10T04:03:28.089Z,58
2018-11-10T04:08:23.369Z,58.6
2018-11-10T04:13:18.735Z,58.7
2018-11-10T04:18:14.359Z,58.6
2018-11-10T04:23:10.184Z,58.9
2018-11-10T04:28:05.769Z,58.7
2018-11-10T04:33:01.399Z,59.2
2018-11-10T04:37:56.943Z,59.3
2018-11-10T04:42:52.496Z,59.4
2018-11-10T04:47:48.101Z,59.5
2018-11-10T04:52:43.802Z,59.7
2018-11-10T04:57:39.791Z,59.7
2018-11-10T05:02:35.652Z,59.3
2018-11-10T05:07:31.553Z,57.9
2018-11-10T05:12:27.221Z,58
2018-11-10T05:17:22.318Z,58.5
2018-11-10T05:22:17.890Z,58.6
2018-11-10T05:27:13.896Z,58.6
2018-11-10T05:32:09.639Z,58.6
2018-11-10T05:37:05.384Z,58.6
2018-11-10T05:42:00.973Z,58.4
2018-11-10T05:46:56.270Z,58.6
2018-11-10T05:51:51.933Z,58.3
2018-11-10T05:56:47.951Z,58.5
2018-11-10T06:01:43.447Z,58.5
2018-11-10T06:06:39.068Z,58.8
2018-11-10T06:11:34.344Z,59.2
2018-11-10T06:16:30.078Z,59.2
2018-11-10T06:21:25.716Z,59.1
2018-11-10T06:26:21.359Z,58.9
2018-11-10T06:31:17.076Z,58.9
2018-11-10T06:36:12.816Z,58.6
2018-11-10T06:41:08.615Z,58.9
2018-11-10T06:46:03.670Z,58.7
2018-11-10T06:50:59.294Z,58.8
2018-11-10T06:55:55.413Z,58.9
2018-11-10T07:00:51.316Z,58.8
2018-11-10T07:05:46.469Z,58.8
2018-11-10T07:10:42.193Z,58.9
2018-11-10T07:15:38.107Z,59.1
2018-11-10T07:20:33.956Z,58.9
2018-11-10T07:25:29.644Z,59
2018-11-10T07:30:25.305Z,58.9
2018-11-10T07:35:20.806Z,58.7
2018-11-10T07:40:16.546Z,58.7
2018-11-10T07:45:12.066Z,58.5
2018-11-10T07:50:07.841Z,58.4
2018-11-10T07:55:04.117Z,58.5
2018-11-10T08:00:00.006Z,58.4
2018-11-10T08:04:55.946Z,58.5
2018-11-10T08:09:51.556Z,58.4
2018-11-10T08:14:47.512Z,58.4
2018-11-10T08:19:43.192Z,58.3
2018-11-10T08:24:39.305Z,57.9
2018-11-10T08:29:35.120Z,58
2018-11-10T08:34:31.067Z,58.1
2018-11-10T08:39:26.768Z,57.7
2018-11-10T08:44:22.713Z,57.8
2018-11-10T08:49:18.631Z,57.7
2018-11-10T08:54:15.216Z,57.9
2018-11-10T08:59:10.713Z,57.5
2018-11-10T09:04:06.494Z,57.6
2018-11-10T09:09:02.179Z,57.7
2018-11-10T09:13:58.017Z,57.4
2018-11-10T09:18:53.482Z,57.4
2018-11-10T09:23:49.392Z,57.3
2018-11-10T09:28:44.987Z,56.9
2018-11-10T09:33:40.757Z,56.6
2018-11-10T09:38:36.637Z,56.5
2018-11-10T09:43:32.782Z,56.3
2018-11-10T09:48:28.309Z,55.8
2018-11-10T09:53:24.680Z,54.9
2018-11-10T09:58:20.410Z,54.4
2018-11-10T10:03:15.734Z,54
2018-11-10T10:08:11.568Z,53.2
2018-11-10T10:13:07.510Z,53
2018-11-10T10:18:03.257Z,52.5
2018-11-10T10:22:59.114Z,52.1
2018-11-10T10:27:55.060Z,51.9
2018-11-10T10:32:51.026Z,51.3
2018-11-10T10:37:46.894Z,51.6
2018-11-10T10:42:42.597Z,50.8
2018-11-10T10:47:38.604Z,51
2018-11-10T10:52:34.793Z,50.4
2018-11-10T10:57:30.900Z,50.8
2018-11-10T11:02:26.766Z,50.2
2018-11-10T11:07:22.449Z,49.9
2018-11-10T11:12:18.205Z,49.5
2018-11-10T11:17:13.975Z,49
2018-11-10T11:22:10.028Z,48.6
2018-11-10T11:27:06.048Z,47.8
2018-11-10T11:32:02.092Z,47.6
2018-11-10T11:36:57.796Z,46.9
2018-11-10T11:41:53.954Z,47
2018-11-10T11:46:49.778Z,46.5
2018-11-10T11:51:45.977Z,46.4
2018-11-10T11:56:41.835Z,46.1
2018-11-10T12:01:38.018Z,45.9
2018-11-10T12:06:33.801Z,45.6
2018-11-10T12:11:29.979Z,45.4
2018-11-10T12:16:27.632Z,45.4
2018-11-10T12:21:21.987Z,45.2
2018-11-10T12:26:17.903Z,45.4
2018-11-10T12:31:13.849Z,44.7
2018-11-10T12:36:09.767Z,45.2
2018-11-10T12:41:05.667Z,44.9
2018-11-10T12:46:01.597Z,44.8
2018-11-10T12:50:57.815Z,45
2018-11-10T12:55:53.765Z,45.4
2018-11-10T13:00:49.476Z,45
2018-11-10T13:05:45.440Z,44.9
2018-11-10T13:10:41.382Z,45
2018-11-10T13:15:37.022Z,44.9
2018-11-10T13:20:32.749Z,44.9
2018-11-10T13:25:28.602Z,44.8
2018-11-10T13:30:24.022Z,44.8
2018-11-10T13:35:19.926Z,44.9
2018-11-10T13:40:15.806Z,44.7
2018-11-10T13:45:11.452Z,44.8
2018-11-10T13:50:07.691Z,44.7
2018-11-10T13:55:03.536Z,45
2018-11-10T13:59:59.447Z,45.2
2018-11-10T14:04:55.357Z,45.3
2018-11-10T14:09:50.886Z,45.2
2018-11-10T14:14:46.863Z,45.2
2018-11-10T14:19:42.684Z,45.1
2018-11-10T14:24:38.420Z,44.8
2018-11-10T14:29:34.365Z,45.2
2018-11-10T14:34:30.152Z,45.3
2018-11-10T14:39:26.138Z,45.4
2018-11-10T14:44:21.877Z,45.7
2018-11-10T14:49:17.862Z,45.7
2018-11-10T14:54:14.077Z,45.8
2018-11-10T14:59:09.610Z,45.8
2018-11-10T15:04:05.438Z,45.9
2018-11-10T15:09:01.429Z,45.9
2018-11-10T15:13:57.011Z,46.1
2018-11-10T15:18:53.290Z,45.7
2018-11-10T15:23:48.687Z,46
2018-11-10T15:28:44.407Z,46.3
2018-11-10T15:33:40.091Z,46.5
2018-11-10T15:38:35.384Z,46.7
2018-11-10T15:43:31.301Z,46.9
2018-11-10T15:48:26.742Z,47.1
2018-11-10T15:53:22.885Z,47.1
2018-11-10T15:58:18.613Z,47.1
2018-11-10T16:03:14.506Z,47.3
2018-11-10T16:08:10.489Z,47.6
2018-11-10T16:13:06.268Z,47.7
2018-11-10T16:18:02.538Z,48.2
2018-11-10T16:22:58.345Z,48
2018-11-10T16:27:54.274Z,47.5
2018-11-10T16:32:49.936Z,47.8
2018-11-10T16:37:45.675Z,47.7
2018-11-10T16:42:41.495Z,48.1
2018-11-10T16:47:37.150Z,48.1
2018-11-10T16:52:32.811Z,48.1
2018-11-10T16:57:28.923Z,48
2018-11-10T17:02:24.823Z,47.8
2018-11-10T17:07:20.094Z,47.9
2018-11-10T17:12:15.690Z,47.6
2018-11-10T17:17:11.370Z,48.1
2018-11-10T17:22:07.205Z,47.8
2018-11-10T17:27:02.981Z,48.1
2018-11-10T17:31:58.717Z,48.1
2018-11-10T17:36:54.896Z,48.1
2018-11-10T17:41:50.668Z,48.4
2018-11-10T17:46:46.361Z,48.6
2018-11-10T17:51:42.155Z,48.9
2018-11-10T17:56:38.017Z,49.1
2018-11-10T18:01:33.980Z,49.2
2018-11-10T18:06:29.197Z,49.4
2018-11-10T18:11:24.715Z,49.5
2018-11-10T18:16:20.718Z,49.7
2018-11-10T18:21:16.305Z,49.9
2018-11-10T18:26:12.264Z,50
2018-11-10T18:31:08.331Z,50.1
2018-11-10T18:36:04.227Z,50.3
2018-11-10T18:40:59.954Z,50.3
2018-11-10T18:45:54.914Z,50.6
2018-11-10T18:50:50.756Z,50.2
2018-11-10T18:55:46.522Z,50.5
2018-11-10T19:00:42.456Z,50.5
2018-11-10T19:05:38.474Z,50.6
2018-11-10T19:10:34.112Z,50.7
2018-11-10T19:15:29.840Z,50.9
2018-11-10T19:20:25.711Z,50.9
2018-11-10T19:25:21.573Z,50.9
2018-11-10T19:30:17.478Z,51.2
2018-11-10T19:35:13.127Z,51.1
2018-11-10T19:40:09.035Z,51
2018-11-10T19:45:04.415Z,51.2
2018-11-10T19:50:00.397Z,51.3
2018-11-10T19:54:56.175Z,51.5
2018-11-10T19:59:51.990Z,51.4
2018-11-10T20:04:47.746Z,51.5
2018-11-10T20:09:43.461Z,51.9
2018-11-10T20:14:38.990Z,51.9
2018-11-10T20:19:34.962Z,51.9
2018-11-10T20:24:30.787Z,51.8
2018-11-10T20:29:26.872Z,52
2018-11-10T20:34:22.241Z,51.9
2018-11-10T20:39:17.790Z,52
2018-11-10T20:44:13.794Z,51.9
2018-11-10T20:49:09.171Z,52.1
2018-11-10T20:54:04.740Z,52.2
2018-11-10T20:59:00.557Z,52.2
2018-11-10T21:03:56.303Z,52.2
2018-11-10T21:08:51.823Z,52.2
2018-11-10T21:13:47.762Z,52.2
2018-11-10T21:18:43.568Z,52.4
2018-11-10T21:23:39.359Z,52.8
2018-11-10T21:28:35.146Z,52.9
2018-11-10T21:33:30.534Z,52.7
2018-11-10T21:38:26.149Z,52.9
2018-11-10T21:43:21.844Z,52.8
2018-11-10T21:48:17.516Z,52.7
2018-11-10T21:53:13.960Z,52.6
2018-11-10T21:58:09.662Z,53.1
2018-11-10T22:03:06.031Z,53.3
2018-11-10T22:08:01.196Z,53.4
2018-11-10T22:12:57.235Z,53.4
2018-11-10T22:17:52.667Z,53.5
2018-11-10T22:22:48.577Z,53.6
2018-11-10T22:27:44.207Z,53.7
2018-11-10T22:32:39.794Z,53.8
2018-11-10T22:37:35.520Z,54.3
2018-11-10T22:42:31.744Z,53.9
2018-11-10T22:47:27.430Z,54.7
2018-11-10T22:52:23.475Z,54.6
2018-11-10T22:57:19.486Z,54
2018-11-10T23:02:15.005Z,54.5
2018-11-10T23:07:10.558Z,54.8
2018-11-10T23:12:06.171Z,54.4
2018-11-10T23:17:02.094Z,54.5
2018-11-10T23:21:57.337Z,54.8
2018-11-10T23:26:53.389Z,54.8
2018-11-10T23:31:49.032Z,54.8
2018-11-10T23:36:45.519Z,54.7
2018-11-10T23:41:41.183Z,55.2
2018-11-10T23:46:36.980Z,55.5
2018-11-10T23:51:32.929Z,55.2
2018-11-10T23:56:28.861Z,55.9
